Time;durP1;ratioP1;P1;durP2;ratioP2;P2;SDS_P1;SDS_P2;PMS_P1;PMS_P2;Temp;Humidity;BMP_temperature;BMP_pressure;BME280_temperature;BME280_humidity;BME280_pressure;Samples;Min_cycle;Max_cycle;Signal;HPM_P1;HPM_P2
2022/09/04 00:01:48;;;;;;;4.78;3.75;;;;;;;;;;5324265;28;20019;-69
2022/09/04 00:04:25;;;;;;;8.40;3.38;;;;;;;;;;5325679;28;20034;-70
2022/09/04 00:07:05;;;;;;;4.45;3.85;;;;;;;;;;5325526;28;20024;-69
2022/09/04 00:09:39;;;;;;;5.72;3.78;;;;;;;;;;5324352;28;20402;-69
2022/09/04 00:12:10;;;;;;;4.57;3.55;;;;;;;;;;5325195;28;20019;-69
2022/09/04 00:14:48;;;;;;;5.63;3.88;;;;;;;;;;5324508;28;20031;-69
2022/09/04 00:17:25;;;;;;;5.45;3.20;;;;;;;;;;5324913;28;20058;-69
2022/09/04 00:20:06;;;;;;;7.15;3.30;;;;;;;;;;5324834;28;20024;-69
2022/09/04 00:22:59;;;;;;;6.38;3.08;;;;;;;;;;5323882;28;20058;-69
2022/09/04 00:25:52;;;;;;;3.75;2.85;;;;;;;;;;5324577;28;20027;-69
2022/09/04 00:28:33;;;;;;;3.78;3.38;;;;;;;;;;5325121;28;20018;-70
2022/09/04 00:31:27;;;;;;;6.13;3.67;;;;;;;;;;5324388;28;20113;-69
2022/09/04 00:34:17;;;;;;;3.55;3.03;;;;;;;;;;5318251;28;20051;-69
2022/09/04 00:36:51;;;;;;;4.70;3.50;;;;;;;;;;5323812;28;20019;-69
2022/09/04 00:39:27;;;;;;;3.63;2.85;;;;;;;;;;5324959;28;20031;-69
2022/09/04 00:42:04;;;;;;;7.25;2.85;;;;;;;;;;5324619;28;20016;-68
2022/09/04 00:44:51;;;;;;;4.38;2.70;;;;;;;;;;5323302;28;20032;-69
2022/09/04 00:47:26;;;;;;;4.15;2.53;;;;;;;;;;5324779;28;20129;-69
2022/09/04 00:50:06;;;;;;;4.68;2.80;;;;;;;;;;5323886;28;20088;-69
2022/09/04 00:52:48;;;;;;;5.25;2.65;;;;;;;;;;5324093;28;20020;-69
2022/09/04 00:55:28;;;;;;;2.65;2.40;;;;;;;;;;5324778;28;20012;-69
2022/09/04 00:58:12;;;;;;;3.63;2.38;;;;;;;;;;5323869;28;20370;-68
2022/09/04 01:00:45;;;;;;;3.25;2.53;;;;;;;;;;5323820;28;20171;-68
2022/09/04 01:03:37;;;;;;;4.70;2.10;;;;;;;;;;5324278;28;20074;-69
2022/09/04 01:06:23;;;;;;;5.10;2.15;;;;;;;;;;5323817;28;20068;-69
2022/09/04 01:09:13;;;;;;;4.03;2.15;;;;;;;;;;5324112;28;20023;-69
2022/09/04 01:12:03;;;;;;;4.25;2.42;;;;;;;;;;5322831;28;20110;-68
2022/09/04 01:14:40;;;;;;;3.38;1.73;;;;;;;;;;5323819;28;20437;-69
2022/09/04 01:17:15;;;;;;;4.18;2.17;;;;;;;;;;5324302;28;20012;-69
2022/09/04 01:19:52;;;;;;;3.97;1.77;;;;;;;;;;5322583;28;20019;-68
2022/09/04 01:22:24;;;;;;;3.17;1.40;;;;;;;;;;5323865;28;20023;-69
2022/09/04 01:25:02;;;;;;;2.38;1.80;;;;;;;;;;5323893;28;20024;-69
2022/09/04 01:27:43;;;;;;;4.10;2.03;;;;;;;;;;5322764;28;20280;-69
2022/09/04 01:30:16;;;;;;;3.88;1.95;;;;;;;;;;5323335;28;20016;-69
2022/09/04 01:32:53;;;;;;;3.55;2.10;;;;;;;;;;5322449;28;20011;-68
2022/09/04 01:35:39;;;;;;;2.28;1.65;;;;;;;;;;5323717;28;20031;-69
2022/09/04 01:38:16;;;;;;;4.80;1.63;;;;;;;;;;5323752;28;20032;-67
2022/09/04 01:40:56;;;;;;;3.00;1.92;;;;;;;;;;5322453;28;20026;-67
2022/09/04 01:43:27;;;;;;;3.42;2.30;;;;;;;;;;5322938;28;20051;-67
2022/09/04 01:46:04;;;;;;;2.90;2.28;;;;;;;;;;5323703;28;20012;-67
2022/09/04 01:48:36;;;;;;;4.68;2.20;;;;;;;;;;5322450;28;20374;-67
2022/09/04 01:51:27;;;;;;;3.00;2.20;;;;;;;;;;5323559;28;20023;-67
2022/09/04 01:54:07;;;;;;;2.38;2.17;;;;;;;;;;5322351;28;20020;-68
2022/09/04 01:56:41;;;;;;;4.00;2.45;;;;;;;;;;5323004;28;20124;-67
2022/09/04 01:59:12;;;;;;;5.50;2.80;;;;;;;;;;5324024;28;20441;-67
2022/09/04 02:01:52;;;;;;;6.85;2.88;;;;;;;;;;5322200;28;20023;-67
2022/09/04 02:04:35;;;;;;;3.63;2.15;;;;;;;;;;5323444;28;20035;-67
2022/09/04 02:07:06;;;;;;;5.80;2.60;;;;;;;;;;5323413;28;20180;-68
2022/09/04 02:09:56;;;;;;;2.90;2.22;;;;;;;;;;5322274;28;20471;-67
2022/09/04 02:12:34;;;;;;;2.75;2.00;;;;;;;;;;5322812;28;20051;-68
2022/09/04 02:15:16;;;;;;;2.72;2.20;;;;;;;;;;5322566;28;20048;-67
2022/09/04 02:18:10;;;;;;;3.58;2.40;;;;;;;;;;5322784;28;20119;-67
2022/09/04 02:21:11;;;;;;;9.70;3.42;;;;;;;;;;5322781;28;20483;-67
2022/09/04 02:23:59;;;;;;;3.67;2.30;;;;;;;;;;5312410;28;20388;-67
2022/09/04 02:26:49;;;;;;;3.40;2.20;;;;;;;;;;5323014;28;20016;-68
2022/09/04 02:29:42;;;;;;;2.83;2.33;;;;;;;;;;5322714;28;20089;-68
2022/09/04 02:32:19;;;;;;;3.58;2.78;;;;;;;;;;5323438;28;20035;-68
2022/09/04 02:35:09;;;;;;;4.82;2.42;;;;;;;;;;5322593;28;20023;-68
2022/09/04 02:37:59;;;;;;;3.25;2.38;;;;;;;;;;5321945;28;20020;-68
2022/09/04 02:40:32;;;;;;;4.22;3.03;;;;;;;;;;5322794;28;20462;-68
2022/09/04 02:43:22;;;;;;;2.88;2.50;;;;;;;;;;5325609;28;20173;-68
2022/09/04 02:46:31;;;;;;;4.18;2.45;;;;;;;;;;5326865;28;20080;-68
2022/09/04 02:49:08;;;;;;;7.07;3.03;;;;;;;;;;5282425;28;20031;-68
2022/09/04 02:52:01;;;;;;;5.63;2.92;;;;;;;;;;5281083;28;20056;-69
2022/09/04 02:54:51;;;;;;;3.58;3.28;;;;;;;;;;5314628;28;20031;-69
2022/09/04 02:57:28;;;;;;;3.85;3.45;;;;;;;;;;5326389;28;20103;-69
2022/09/04 03:00:01;;;;;;;4.53;3.35;;;;;;;;;;5326878;28;20024;-68
2022/09/04 03:02:54;;;;;;;3.78;3.45;;;;;;;;;;5326320;28;20430;-68
2022/09/04 03:05:35;;;;;;;3.55;3.25;;;;;;;;;;5325355;28;20102;-68
2022/09/04 03:08:15;;;;;;;5.22;3.65;;;;;;;;;;5326723;28;20019;-68
2022/09/04 03:10:51;;;;;;;5.07;3.70;;;;;;;;;;5325643;28;20458;-68
2022/09/04 03:13:22;;;;;;;3.85;3.47;;;;;;;;;;5326594;28;20015;-69
2022/09/04 03:15:54;;;;;;;5.15;4.22;;;;;;;;;;5326023;28;20171;-69
2022/09/04 03:18:52;;;;;;;4.47;4.05;;;;;;;;;;5325576;28;20087;-69
2022/09/04 03:21:31;;;;;;;8.00;3.53;;;;;;;;;;5326448;28;20063;-69
2022/09/04 03:24:08;;;;;;;5.20;3.90;;;;;;;;;;5326477;28;20027;-69
2022/09/04 03:26:40;;;;;;;5.57;3.55;;;;;;;;;;5325160;28;20020;-69
2022/09/04 03:29:15;;;;;;;7.28;4.00;;;;;;;;;;5326209;28;20024;-69
2022/09/04 03:31:52;;;;;;;4.88;3.95;;;;;;;;;;5324896;28;20107;-69
2022/09/04 03:34:49;;;;;;;4.40;4.00;;;;;;;;;;5326106;28;20043;-68
2022/09/04 03:37:39;;;;;;;7.25;3.70;;;;;;;;;;5323774;28;20122;-68
2022/09/04 03:40:29;;;;;;;4.13;3.72;;;;;;;;;;5325569;28;20068;-68
2022/09/04 03:43:08;;;;;;;5.75;3.72;;;;;;;;;;5325825;28;20557;-68
2022/09/04 03:45:58;;;;;;;5.07;3.90;;;;;;;;;;5325635;28;20020;-68
2022/09/04 03:48:32;;;;;;;3.83;3.42;;;;;;;;;;5325584;28;20024;-69
2022/09/04 03:51:03;;;;;;;4.70;3.78;;;;;;;;;;5326066;28;20023;-69
2022/09/04 03:53:44;;;;;;;4.88;4.40;;;;;;;;;;5324190;28;20019;-67
2022/09/04 03:56:34;;;;;;;6.20;4.22;;;;;;;;;;5325714;28;20612;-68
2022/09/04 03:59:15;;;;;;;4.70;4.30;;;;;;;;;;5325857;28;20458;-68
2022/09/04 04:02:01;;;;;;;4.57;4.22;;;;;;;;;;5324430;28;20424;-68
2022/09/04 04:04:42;;;;;;;5.68;4.28;;;;;;;;;;5324883;28;20063;-68
2022/09/04 04:07:27;;;;;;;5.18;4.35;;;;;;;;;;5324977;28;20462;-67
2022/09/04 04:09:58;;;;;;;5.07;3.65;;;;;;;;;;5325668;28;20023;-67
2022/09/04 04:12:48;;;;;;;5.05;4.53;;;;;;;;;;5324890;28;20086;-68
2022/09/04 04:15:24;;;;;;;5.07;4.15;;;;;;;;;;5324794;28;20031;-67
2022/09/04 04:18:03;;;;;;;4.57;4.28;;;;;;;;;;5324984;28;20011;-68
2022/09/04 04:20:51;;;;;;;4.65;4.15;;;;;;;;;;5324424;28;20023;-69
2022/09/04 04:23:30;;;;;;;6.00;4.07;;;;;;;;;;5324501;28;20030;-68
2022/09/04 04:26:09;;;;;;;7.07;4.43;;;;;;;;;;5325032;28;20023;-69
2022/09/04 04:28:47;;;;;;;4.85;4.45;;;;;;;;;;5323799;28;20061;-69
2022/09/04 04:31:33;;;;;;;5.72;4.22;;;;;;;;;;5325062;28;20024;-68
2022/09/04 04:34:24;;;;;;;5.40;4.45;;;;;;;;;;5325113;28;20023;-69
2022/09/04 04:37:02;;;;;;;5.00;4.60;;;;;;;;;;5323792;28;20027;-68
2022/09/04 04:39:54;;;;;;;5.47;4.28;;;;;;;;;;5324315;28;20470;-68
2022/09/04 04:42:34;;;;;;;5.55;4.07;;;;;;;;;;5323390;28;20398;-68
2022/09/04 04:45:50;;;;;;;5.10;4.65;;;;;;;;;;5324837;28;20081;-68
2022/09/04 04:48:39;;;;;;;5.28;4.60;;;;;;;;;;5324554;28;20027;-68
2022/09/04 04:51:31;;;;;;;5.38;4.88;;;;;;;;;;5323906;28;20394;-68
2022/09/04 04:54:21;;;;;;;5.43;5.03;;;;;;;;;;5302645;28;20470;-69
2022/09/04 04:57:12;;;;;;;4.68;4.28;;;;;;;;;;5323272;28;20027;-68
2022/09/04 04:59:50;;;;;;;6.18;4.60;;;;;;;;;;5323312;28;20043;-68
2022/09/04 05:02:29;;;;;;;4.65;4.25;;;;;;;;;;5324316;28;20020;-67
2022/09/04 05:05:04;;;;;;;4.68;4.28;;;;;;;;;;5322536;28;20074;-68
2022/09/04 05:07:45;;;;;;;6.10;5.10;;;;;;;;;;5323824;28;20019;-68
2022/09/04 05:10:19;;;;;;;6.05;4.80;;;;;;;;;;5323592;28;20019;-68
2022/09/04 05:13:00;;;;;;;5.82;5.18;;;;;;;;;;5323654;28;20048;-69
2022/09/04 05:15:49;;;;;;;5.38;4.88;;;;;;;;;;5323602;28;20485;-69
2022/09/04 05:18:35;;;;;;;5.60;5.05;;;;;;;;;;5323503;28;20028;-68
2022/09/04 05:21:21;;;;;;;6.15;4.85;;;;;;;;;;5324069;28;20374;-68
2022/09/04 05:24:00;;;;;;;5.53;5.03;;;;;;;;;;5323353;28;20258;-68
2022/09/04 05:26:34;;;;;;;5.82;4.82;;;;;;;;;;5322623;28;20069;-68
2022/09/04 05:29:10;;;;;;;5.45;5.00;;;;;;;;;;5323985;28;20323;-68
2022/09/04 05:31:47;;;;;;;7.28;4.97;;;;;;;;;;5322451;28;20174;-68
2022/09/04 05:34:19;;;;;;;5.75;4.88;;;;;;;;;;5323742;28;20023;-68
2022/09/04 05:36:59;;;;;;;6.32;5.50;;;;;;;;;;5323044;28;20008;-68
2022/09/04 05:39:34;;;;;;;6.45;5.20;;;;;;;;;;5322549;28;20019;-67
2022/09/04 05:42:11;;;;;;;6.13;5.53;;;;;;;;;;5323491;28;20012;-69
2022/09/04 05:45:04;;;;;;;5.55;5.10;;;;;;;;;;5322937;28;20035;-69
2022/09/04 05:47:42;;;;;;;5.53;4.97;;;;;;;;;;5322525;28;20149;-68
2022/09/04 05:50:19;;;;;;;8.57;5.57;;;;;;;;;;5323741;28;20019;-69
2022/09/04 05:52:59;;;;;;;7.25;6.50;;;;;;;;;;5322150;28;20055;-69
2022/09/04 05:55:36;;;;;;;8.20;5.57;;;;;;;;;;5323158;28;20026;-69
2022/09/04 05:58:09;;;;;;;6.55;5.95;;;;;;;;;;5323550;28;20531;-69
2022/09/04 06:01:01;;;;;;;6.95;6.35;;;;;;;;;;5322266;28;20489;-69
2022/09/04 06:03:38;;;;;;;8.02;6.38;;;;;;;;;;5315001;28;20039;-69
2022/09/04 06:06:20;;;;;;;7.25;5.70;;;;;;;;;;5323397;28;20024;-69
2022/09/04 06:09:09;;;;;;;6.70;6.10;;;;;;;;;;5322235;28;20019;-68
2022/09/04 06:11:46;;;;;;;7.00;6.28;;;;;;;;;;5322680;28;20024;-69
2022/09/04 06:14:17;;;;;;;6.53;5.28;;;;;;;;;;5322727;28;20024;-69
2022/09/04 06:16:59;;;;;;;5.95;5.35;;;;;;;;;;5325843;28;20072;-68
2022/09/04 06:19:49;;;;;;;7.57;6.53;;;;;;;;;;5327082;28;20489;-68
2022/09/04 06:22:35;;;;;;;6.82;6.13;;;;;;;;;;5326850;28;20019;-68
2022/09/04 06:25:06;;;;;;;6.90;6.20;;;;;;;;;;5327648;28;20111;-69
2022/09/04 06:27:44;;;;;;;6.85;5.88;;;;;;;;;;5326286;28;20098;-69
2022/09/04 06:30:16;;;;;;;6.25;5.70;;;;;;;;;;5327363;28;20026;-69
2022/09/04 06:32:47;;;;;;;7.03;6.13;;;;;;;;;;5326680;28;20008;-69
2022/09/04 06:35:31;;;;;;;8.50;5.80;;;;;;;;;;5326672;28;20026;-69
2022/09/04 06:38:21;;;;;;;6.50;5.78;;;;;;;;;;5327274;28;20024;-69
2022/09/04 06:40:58;;;;;;;7.18;6.47;;;;;;;;;;5326620;28;20012;-69
2022/09/04 06:43:39;;;;;;;8.43;6.50;;;;;;;;;;5325594;28;20481;-69
2022/09/04 06:46:29;;;;;;;7.32;6.53;;;;;;;;;;5327190;28;20038;-69
2022/09/04 06:49:00;;;;;;;6.85;6.15;;;;;;;;;;5326339;28;20027;-69
2022/09/04 06:51:31;;;;;;;6.70;5.97;;;;;;;;;;5326453;28;20015;-68
2022/09/04 06:54:21;;;;;;;8.02;6.43;;;;;;;;;;5326894;28;20268;-68
2022/09/04 06:57:05;;;;;;;5.70;5.20;;;;;;;;;;5325648;28;20019;-68
2022/09/04 06:59:55;;;;;;;8.07;7.28;;;;;;;;;;5326025;28;20020;-68
2022/09/04 07:02:39;;;;;;;7.13;6.45;;;;;;;;;;5326365;28;20048;-69
2022/09/04 07:05:10;;;;;;;7.30;6.25;;;;;;;;;;5326666;28;20060;-69
2022/09/04 07:08:00;;;;;;;7.97;6.50;;;;;;;;;;5326171;28;20065;-69
2022/09/04 07:10:33;;;;;;;11.25;6.40;;;;;;;;;;5325442;28;20492;-69
2022/09/04 07:13:07;;;;;;;7.28;6.57;;;;;;;;;;5326381;28;20020;-69
2022/09/04 07:15:44;;;;;;;7.30;6.60;;;;;;;;;;5325808;28;20095;-68
2022/09/04 07:18:26;;;;;;;9.77;6.75;;;;;;;;;;5325465;28;20068;-69
2022/09/04 07:21:16;;;;;;;7.43;6.72;;;;;;;;;;5326868;28;20012;-68
2022/09/04 07:23:51;;;;;;;7.00;6.38;;;;;;;;;;5324977;28;20434;-69
2022/09/04 07:26:27;;;;;;;8.63;6.90;;;;;;;;;;5326397;28;20441;-67
2022/09/04 07:29:01;;;;;;;8.50;7.78;;;;;;;;;;5325353;28;20027;-68
2022/09/04 07:31:44;;;;;;;8.00;7.00;;;;;;;;;;5325136;28;20034;-68
2022/09/04 07:34:20;;;;;;;8.43;6.80;;;;;;;;;;5325885;28;20031;-68
2022/09/04 07:36:53;;;;;;;12.75;7.65;;;;;;;;;;5325483;28;20043;-68
2022/09/04 07:39:29;;;;;;;13.27;7.63;;;;;;;;;;5325248;28;20035;-69
2022/09/04 07:42:08;;;;;;;8.45;7.65;;;;;;;;;;5325725;28;20023;-68
2022/09/04 07:44:42;;;;;;;10.13;8.48;;;;;;;;;;5325476;28;20439;-68
2022/09/04 07:47:19;;;;;;;9.45;8.15;;;;;;;;;;5325133;28;20554;-68
2022/09/04 07:50:08;;;;;;;13.18;9.10;;;;;;;;;;5325378;28;20064;-68
2022/09/04 07:52:59;;;;;;;12.30;9.23;;;;;;;;;;5324636;28;20501;-67
2022/09/04 07:55:39;;;;;;;10.15;9.18;;;;;;;;;;5325079;28;20020;-69
2022/09/04 07:58:17;;;;;;;12.10;8.43;;;;;;;;;;5325555;28;20478;-69
2022/09/04 08:00:58;;;;;;;15.30;8.15;;;;;;;;;;5324401;28;20037;-69
2022/09/04 08:03:36;;;;;;;11.93;9.52;;;;;;;;;;5324729;28;20096;-69
2022/09/04 08:06:29;;;;;;;11.27;9.55;;;;;;;;;;5324683;28;20023;-69
2022/09/04 08:09:08;;;;;;;11.70;10.50;;;;;;;;;;5325286;28;20076;-69
2022/09/04 08:11:50;;;;;;;12.88;10.85;;;;;;;;;;5324913;28;20012;-69
2022/09/04 08:14:21;;;;;;;13.13;11.60;;;;;;;;;;5324472;28;20441;-69
2022/09/04 08:17:16;;;;;;;10.82;9.73;;;;;;;;;;5324749;28;20210;-69
2022/09/04 08:20:08;;;;;;;11.63;10.35;;;;;;;;;;5324594;28;20020;-68
2022/09/04 08:22:45;;;;;;;10.30;9.30;;;;;;;;;;5322696;28;20130;-68
2022/09/04 08:25:42;;;;;;;12.95;9.32;;;;;;;;;;5324146;28;20028;-68
2022/09/04 08:28:32;;;;;;;10.82;9.75;;;;;;;;;;5323774;28;20058;-67
2022/09/04 08:31:09;;;;;;;13.40;9.82;;;;;;;;;;5324922;28;20031;-68
2022/09/04 08:33:53;;;;;;;12.35;9.57;;;;;;;;;;5324306;28;20023;-68
2022/09/04 08:36:28;;;;;;;11.52;8.63;;;;;;;;;;5323948;28;20023;-68
2022/09/04 08:39:04;;;;;;;9.25;7.28;;;;;;;;;;5324757;28;20447;-68
2022/09/04 08:41:53;;;;;;;10.23;7.45;;;;;;;;;;5323184;28;20458;-68
2022/09/04 08:44:43;;;;;;;11.02;8.23;;;;;;;;;;5324689;28;20047;-70
2022/09/04 08:47:30;;;;;;;8.85;8.00;;;;;;;;;;5324622;28;20102;-68
2022/09/04 08:50:28;;;;;;;8.40;7.60;;;;;;;;;;5323908;28;20022;-68
2022/09/04 08:53:14;;;;;;;8.00;6.07;;;;;;;;;;5324870;28;20032;-68
2022/09/04 08:56:05;;;;;;;10.73;6.13;;;;;;;;;;5323427;28;20024;-67
2022/09/04 08:59:00;;;;;;;7.45;5.78;;;;;;;;;;5323800;28;20012;-68
2022/09/04 09:01:40;;;;;;;11.80;5.95;;;;;;;;;;5324167;28;20024;-68
2022/09/04 09:04:25;;;;;;;7.45;5.50;;;;;;;;;;5323666;28;20027;-67
2022/09/04 09:07:15;;;;;;;6.55;5.93;;;;;;;;;;5324254;28;20023;-68
2022/09/04 09:09:52;;;;;;;7.80;5.15;;;;;;;;;;5323143;28;20015;-69
2022/09/04 09:12:23;;;;;;;7.78;5.05;;;;;;;;;;5324220;28;20088;-68
2022/09/04 09:15:19;;;;;;;8.00;4.88;;;;;;;;;;5323949;28;20455;-68
2022/09/04 09:17:56;;;;;;;8.10;4.63;;;;;;;;;;5323141;28;20019;-67
2022/09/04 09:20:46;;;;;;;5.45;4.05;;;;;;;;;;5323540;28;20023;-67
2022/09/04 09:23:18;;;;;;;5.72;3.20;;;;;;;;;;5323706;28;20427;-68
2022/09/04 09:26:08;;;;;;;5.28;2.53;;;;;;;;;;5323414;28;20048;-68
2022/09/04 09:28:57;;;;;;;6.45;2.88;;;;;;;;;;5323408;28;20420;-68
2022/09/04 09:31:42;;;;;;;4.05;2.53;;;;;;;;;;5322646;28;20073;-69
2022/09/04 09:34:36;;;;;;;4.72;2.33;;;;;;;;;;5324033;28;20031;-68
2022/09/04 09:37:11;;;;;;;4.40;2.40;;;;;;;;;;5323696;28;20141;-68
2022/09/04 09:40:00;;;;;;;5.22;1.88;;;;;;;;;;5322517;28;20080;-68
2022/09/04 09:42:44;;;;;;;4.50;1.90;;;;;;;;;;5323039;28;20040;-68
2022/09/04 09:45:32;;;;;;;4.03;2.53;;;;;;;;;;5323235;28;20035;-68
2022/09/04 09:48:32;;;;;;;4.55;2.20;;;;;;;;;;5323789;28;20042;-68
2022/09/04 09:51:12;;;;;;;4.68;2.42;;;;;;;;;;5323193;28;20138;-68
2022/09/04 09:54:01;;;;;;;4.78;1.50;;;;;;;;;;5322361;28;20030;-67
2022/09/04 09:56:51;;;;;;;3.88;2.28;;;;;;;;;;5322876;28;20043;-68
2022/09/04 09:59:36;;;;;;;34.67;3.80;;;;;;;;;;5323032;28;20026;-68
2022/09/04 10:02:10;;;;;;;3.75;1.40;;;;;;;;;;5323810;28;20051;-68
2022/09/04 10:04:44;;;;;;;8.98;1.23;;;;;;;;;;5323007;28;20035;-68
2022/09/04 10:07:35;;;;;;;5.22;1.42;;;;;;;;;;5322736;28;20564;-67
2022/09/04 10:10:20;;;;;;;5.57;1.45;;;;;;;;;;5323593;28;20148;-67
2022/09/04 10:13:13;;;;;;;4.95;1.42;;;;;;;;;;5322089;28;20023;-66
2022/09/04 10:15:51;;;;;;;3.38;0.98;;;;;;;;;;5323172;28;20167;-67
2022/09/04 10:18:34;;;;;;;1.87;1.17;;;;;;;;;;5323660;28;20472;-66
2022/09/04 10:21:19;;;;;;;3.17;0.70;;;;;;;;;;5322750;28;20265;-66
2022/09/04 10:24:09;;;;;;;2.22;0.70;;;;;;;;;;5322776;28;20542;-66
2022/09/04 10:26:53;;;;;;;2.35;0.50;;;;;;;;;;5321923;28;20020;-67
2022/09/04 10:29:43;;;;;;;1.92;0.70;;;;;;;;;;5323164;28;20099;-67
2022/09/04 10:32:17;;;;;;;1.67;0.50;;;;;;;;;;5323375;28;20023;-67
2022/09/04 10:34:57;;;;;;;1.20;0.50;;;;;;;;;;5321918;28;20023;-67
2022/09/04 10:37:40;;;;;;;1.70;0.50;;;;;;;;;;5322873;28;20374;-67
2022/09/04 10:40:34;;;;;;;1.65;0.50;;;;;;;;;;5323374;28;20099;-67
2022/09/04 10:43:08;;;;;;;1.50;0.50;;;;;;;;;;5322327;28;20500;-69
2022/09/04 10:45:45;;;;;;;4.25;0.50;;;;;;;;;;5322601;28;20028;-66
2022/09/04 10:48:23;;;;;;;1.30;0.50;;;;;;;;;;5322596;28;20026;-67
2022/09/04 10:51:14;;;;;;;2.47;0.60;;;;;;;;;;5322742;28;20031;-68
2022/09/04 10:54:05;;;;;;;5.68;0.40;;;;;;;;;;5322680;28;20123;-66
2022/09/04 10:56:42;;;;;;;1.85;0.45;;;;;;;;;;5321568;28;20051;-68
2022/09/04 10:59:26;;;;;;;1.80;0.40;;;;;;;;;;5322927;28;20031;-68
2022/09/04 11:02:02;;;;;;;2.35;0.40;;;;;;;;;;5322377;28;20016;-69
2022/09/04 11:04:44;;;;;;;2.35;0.40;;;;;;;;;;5326140;28;20111;-69
2022/09/04 11:07:36;;;;;;;2.35;0.40;;;;;;;;;;5326792;28;20019;-69
2022/09/04 11:10:07;;;;;;;1.33;0.40;;;;;;;;;;5294089;27;20062;-68
2022/09/04 11:12:50;;;;;;;3.50;0.40;;;;;;;;;;5326205;28;20051;-70
2022/09/04 11:15:40;;;;;;;1.20;0.50;;;;;;;;;;5326598;28;20030;-71
2022/09/04 11:18:16;;;;;;;1.77;0.50;;;;;;;;;;5325784;28;20024;-68
2022/09/04 11:20:53;;;;;;;2.08;0.50;;;;;;;;;;5325943;28;20374;-68
2022/09/04 11:23:31;;;;;;;2.25;0.50;;;;;;;;;;5325354;28;20064;-69
2022/09/04 11:26:17;;;;;;;2.63;0.80;;;;;;;;;;5326412;28;20023;-69
2022/09/04 11:28:58;;;;;;;2.83;0.57;;;;;;;;;;5325745;28;20043;-68
2022/09/04 11:31:53;;;;;;;1.85;0.50;;;;;;;;;;5324972;28;20030;-69
2022/09/04 11:34:43;;;;;;;1.40;0.50;;;;;;;;;;5325381;28;20523;-68
2022/09/04 11:37:34;;;;;;;3.13;0.63;;;;;;;;;;5324964;28;20063;-68
2022/09/04 11:40:17;;;;;;;1.48;0.50;;;;;;;;;;5325171;28;20031;-67
2022/09/04 11:42:49;;;;;;;2.80;0.60;;;;;;;;;;5322722;28;20135;-68
2022/09/04 11:45:35;;;;;;;4.30;0.50;;;;;;;;;;5325375;28;20022;-68
2022/09/04 11:48:12;;;;;;;1.52;0.40;;;;;;;;;;5326009;28;20023;-68
2022/09/04 11:50:46;;;;;;;1.65;0.50;;;;;;;;;;5325350;28;20131;-68
2022/09/04 11:53:20;;;;;;;3.20;0.60;;;;;;;;;;5325031;28;20026;-69
2022/09/04 11:56:09;;;;;;;4.20;0.50;;;;;;;;;;5325222;28;20019;-69
2022/09/04 11:58:53;;;;;;;2.15;0.60;;;;;;;;;;5324507;28;20466;-69
2022/09/04 12:01:25;;;;;;;2.08;0.60;;;;;;;;;;5325398;28;20073;-69
2022/09/04 12:03:59;;;;;;;3.25;0.60;;;;;;;;;;5325515;28;20119;-69
2022/09/04 12:06:49;;;;;;;4.32;0.50;;;;;;;;;;5324529;28;20020;-69
2022/09/04 12:09:39;;;;;;;1.60;0.47;;;;;;;;;;5325570;28;20042;-68
2022/09/04 12:12:25;;;;;;;3.85;0.50;;;;;;;;;;5324594;28;20028;-69
2022/09/04 12:15:11;;;;;;;3.10;0.40;;;;;;;;;;5325501;28;20020;-69
2022/09/04 12:18:01;;;;;;;2.10;0.60;;;;;;;;;;5325047;28;20354;-68
2022/09/04 12:20:44;;;;;;;2.47;0.50;;;;;;;;;;5324067;28;20390;-67
2022/09/04 12:23:30;;;;;;;2.13;0.50;;;;;;;;;;5325279;28;20102;-67
2022/09/04 12:26:13;;;;;;;3.03;0.47;;;;;;;;;;5325277;28;20015;-68
2022/09/04 12:28:56;;;;;;;2.88;0.50;;;;;;;;;;5324406;27;20024;-68
2022/09/04 12:31:41;;;;;;;2.05;0.50;;;;;;;;;;5324700;28;20050;-68
2022/09/04 12:34:24;;;;;;;0.88;0.40;;;;;;;;;;5324309;28;20016;-68
2022/09/04 12:37:15;;;;;;;3.10;0.85;;;;;;;;;;5324574;28;20023;-68
2022/09/04 12:40:21;;;;;;;2.65;0.40;;;;;;;;;;5324667;28;20038;-68
2022/09/04 12:43:04;;;;;;;1.92;0.40;;;;;;;;;;5258711;28;20068;-68
2022/09/04 12:45:54;;;;;;;2.42;0.50;;;;;;;;;;5318673;28;20383;-67
2022/09/04 12:48:34;;;;;;;3.03;0.40;;;;;;;;;;5323900;28;20374;-68
2022/09/04 12:51:11;;;;;;;1.52;0.40;;;;;;;;;;5324781;28;20100;-68
2022/09/04 12:54:00;;;;;;;1.23;0.50;;;;;;;;;;5323978;28;20028;-68
2022/09/04 12:56:47;;;;;;;0.70;0.22;;;;;;;;;;5323106;28;20100;-68
2022/09/04 12:59:28;;;;;;;2.40;0.40;;;;;;;;;;5324458;28;20047;-68
2022/09/04 13:02:08;;;;;;;1.02;0.30;;;;;;;;;;5323747;28;20016;-69
2022/09/04 13:04:57;;;;;;;4.90;0.50;;;;;;;;;;5324045;28;20535;-68
2022/09/04 13:07:39;;;;;;;2.08;0.40;;;;;;;;;;5323911;28;20038;-68
2022/09/04 13:10:17;;;;;;;1.65;0.50;;;;;;;;;;5323698;28;20474;-68
2022/09/04 13:12:57;;;;;;;0.93;0.40;;;;;;;;;;5323786;28;20521;-68
2022/09/04 13:15:31;;;;;;;2.75;0.40;;;;;;;;;;5323017;28;20016;-68
2022/09/04 13:18:08;;;;;;;2.17;0.40;;;;;;;;;;5324256;28;20102;-67
2022/09/04 13:20:49;;;;;;;3.33;0.38;;;;;;;;;;5323633;28;20026;-68
2022/09/04 13:23:22;;;;;;;2.17;0.50;;;;;;;;;;5323608;28;20055;-67
2022/09/04 13:26:00;;;;;;;1.95;0.30;;;;;;;;;;5323109;28;20099;-67
2022/09/04 13:28:57;;;;;;;1.90;0.30;;;;;;;;;;5323489;28;20069;-68
2022/09/04 13:31:55;;;;;;;0.95;0.30;;;;;;;;;;5322790;28;20024;-67
2022/09/04 13:34:38;;;;;;;2.17;0.40;;;;;;;;;;5299323;28;20104;-68
2022/09/04 13:37:09;;;;;;;3.33;0.30;;;;;;;;;;5323261;28;20024;-69
2022/09/04 13:39:45;;;;;;;1.13;0.30;;;;;;;;;;5323103;28;20020;-67
2022/09/04 13:42:33;;;;;;;1.35;0.20;;;;;;;;;;5323890;28;20130;-67
2022/09/04 13:45:08;;;;;;;0.80;0.20;;;;;;;;;;5323386;28;20138;-67
2022/09/04 13:47:49;;;;;;;1.13;0.30;;;;;;;;;;5323232;28;20043;-67
2022/09/04 13:50:20;;;;;;;4.05;0.40;;;;;;;;;;5323765;28;20024;-68
2022/09/04 13:53:09;;;;;;;1.00;0.30;;;;;;;;;;5322454;28;20042;-66
2022/09/04 13:56:08;;;;;;;3.42;0.30;;;;;;;;;;5323149;28;20016;-67
2022/09/04 13:58:45;;;;;;;1.05;0.25;;;;;;;;;;5299047;28;20028;-67
2022/09/04 14:01:20;;;;;;;0.93;0.32;;;;;;;;;;5323941;28;20471;-67
2022/09/04 14:03:54;;;;;;;3.10;0.20;;;;;;;;;;5323032;28;20157;-69
2022/09/04 14:06:26;;;;;;;2.53;0.30;;;;;;;;;;5322596;28;20091;-68
2022/09/04 14:08:59;;;;;;;0.95;0.20;;;;;;;;;;5323773;28;20370;-69
2022/09/04 14:11:36;;;;;;;1.38;0.20;;;;;;;;;;5323230;28;20378;-67
2022/09/04 14:14:24;;;;;;;2.58;0.30;;;;;;;;;;5322952;28;20099;-67
2022/09/04 14:16:58;;;;;;;;;;;;;;;;;;5323649;28;20031;-67
2022/09/04 14:19:31;;;;;;;4.00;0.30;;;;;;;;;;5322176;28;19903;-67
2022/09/04 14:22:05;;;;;;;1.75;0.20;;;;;;;;;;5323646;28;20024;-67
2022/09/04 14:24:56;;;;;;;3.65;0.30;;;;;;;;;;5322928;28;20032;-69
2022/09/04 14:27:40;;;;;;;2.72;0.30;;;;;;;;;;5322054;28;20091;-67
2022/09/04 14:30:13;;;;;;;1.98;0.30;;;;;;;;;;5323452;28;20027;-68
2022/09/04 14:32:49;;;;;;;4.30;0.20;;;;;;;;;;5322846;28;20020;-68
2022/09/04 14:35:34;;;;;;;2.55;0.30;;;;;;;;;;5323598;28;20386;-68
2022/09/04 14:38:13;;;;;;;2.95;0.30;;;;;;;;;;5326897;28;20016;-68
2022/09/04 14:40:55;;;;;;;2.65;0.30;;;;;;;;;;5325664;28;20533;-69
2022/09/04 14:43:34;;;;;;;1.98;0.20;;;;;;;;;;5326584;28;20469;-68
2022/09/04 14:46:22;;;;;;;1.90;0.20;;;;;;;;;;5327309;28;20084;-69
2022/09/04 14:48:59;;;;;;;2.25;0.30;;;;;;;;;;5325969;28;20432;-69
2022/09/04 14:51:36;;;;;;;1.33;0.30;;;;;;;;;;5326288;28;20021;-69
2022/09/04 14:54:12;;;;;;;2.78;0.30;;;;;;;;;;5315238;28;20035;-68
2022/09/04 14:56:46;;;;;;;2.35;0.30;;;;;;;;;;5326403;27;20100;-67
2022/09/04 14:59:32;;;;;;;1.45;0.30;;;;;;;;;;5326956;28;20049;-67
2022/09/04 15:02:10;;;;;;;1.05;0.30;;;;;;;;;;5325555;28;20015;-68
2022/09/04 15:04:50;;;;;;;4.03;0.43;;;;;;;;;;5326029;28;20039;-68
2022/09/04 15:07:34;;;;;;;1.10;0.30;;;;;;;;;;5327043;28;20095;-68
2022/09/04 15:10:25;;;;;;;1.92;0.28;;;;;;;;;;5326083;28;20034;-68
2022/09/04 15:13:15;;;;;;;2.72;0.45;;;;;;;;;;5326244;28;20028;-68
2022/09/04 15:15:51;;;;;;;2.97;0.30;;;;;;;;;;5325503;28;20022;-68
2022/09/04 15:18:28;;;;;;;3.03;0.40;;;;;;;;;;5326690;28;20024;-68
2022/09/04 15:21:07;;;;;;;2.30;0.30;;;;;;;;;;5326541;28;20378;-68
2022/09/04 15:23:48;;;;;;;2.85;0.52;;;;;;;;;;5324875;28;20036;-68
2022/09/04 15:26:27;;;;;;;2.30;0.30;;;;;;;;;;5325965;28;20034;-69
2022/09/04 15:29:02;;;;;;;2.17;0.30;;;;;;;;;;5326349;28;20363;-69
2022/09/04 15:31:34;;;;;;;2.03;0.45;;;;;;;;;;5325642;28;20123;-69
2022/09/04 15:34:07;;;;;;;2.60;0.40;;;;;;;;;;5326059;28;20321;-68
2022/09/04 15:36:39;;;;;;;1.38;0.30;;;;;;;;;;5324755;28;20053;-70
2022/09/04 15:39:19;;;;;;;1.42;0.40;;;;;;;;;;5326218;28;20108;-67
2022/09/04 15:41:51;;;;;;;1.00;0.28;;;;;;;;;;5325225;28;20148;-67
2022/09/04 15:44:24;;;;;;;2.58;0.30;;;;;;;;;;5325200;28;20530;-68
2022/09/04 15:47:03;;;;;;;3.05;0.30;;;;;;;;;;5325579;28;20023;-67
2022/09/04 15:49:34;;;;;;;3.55;0.50;;;;;;;;;;5324836;28;20035;-68
2022/09/04 15:52:17;;;;;;;2.47;0.30;;;;;;;;;;5324915;28;20382;-68
2022/09/04 15:54:51;;;;;;;0.75;0.20;;;;;;;;;;5325206;28;20024;-68
2022/09/04 15:57:37;;;;;;;2.80;0.30;;;;;;;;;;5324869;28;20024;-69
2022/09/04 16:00:10;;;;;;;2.25;0.22;;;;;;;;;;5325711;28;20043;-68
2022/09/04 16:02:49;;;;;;;1.60;0.40;;;;;;;;;;5324851;28;20524;-68
2022/09/04 16:05:22;;;;;;;1.70;0.30;;;;;;;;;;5324685;28;20110;-68
2022/09/04 16:08:01;;;;;;;3.30;0.25;;;;;;;;;;5324687;28;20058;-68
2022/09/04 16:10:43;;;;;;;1.15;0.30;;;;;;;;;;5324975;28;20031;-68